sensor_id;sensor_type;location;lat;lon;timestamp;pressure;altitude;pressure_sealevel;temperature;humidity
9335;BME280;4706;41.844;26.082;2023-03-01T00:01:39;101554.16;;;11.50;85.91
9335;BME280;4706;41.844;26.082;2023-03-01T00:04:05;101543.66;;;11.57;85.78
9335;BME280;4706;41.844;26.082;2023-03-01T00:06:31;101544.97;;;11.70;85.69
9335;BME280;4706;41.844;26.082;2023-03-01T00:08:56;101543.06;;;11.70;84.59
9335;BME280;4706;41.844;26.082;2023-03-01T00:11:26;101533.50;;;11.52;85.91
9335;BME280;4706;41.844;26.082;2023-03-01T00:13:53;101535.09;;;11.63;85.71
9335;BME280;4706;41.844;26.082;2023-03-01T00:16:26;101527.81;;;11.83;84.89
9335;BME280;4706;41.844;26.082;2023-03-01T00:18:54;101518.00;;;11.66;86.35
9335;BME280;4706;41.844;26.082;2023-03-01T00:21:20;101513.00;;;11.74;85.90
9335;BME280;4706;41.844;26.082;2023-03-01T00:23:47;101511.88;;;11.70;85.33
9335;BME280;4706;41.844;26.082;2023-03-01T00:26:14;101501.16;;;11.68;85.24
9335;BME280;4706;41.844;26.082;2023-03-01T00:28:40;101504.72;;;11.68;85.01
9335;BME280;4706;41.844;26.082;2023-03-01T00:31:11;101503.97;;;11.63;85.82
9335;BME280;4706;41.844;26.082;2023-03-01T00:33:37;101508.88;;;11.71;85.07
9335;BME280;4706;41.844;26.082;2023-03-01T00:36:03;101506.16;;;11.61;84.67
9335;BME280;4706;41.844;26.082;2023-03-01T00:38:29;101504.97;;;11.77;83.25
9335;BME280;4706;41.844;26.082;2023-03-01T00:40:54;101514.41;;;11.66;84.30
9335;BME280;4706;41.844;26.082;2023-03-01T00:43:21;101508.41;;;11.59;84.05
9335;BME280;4706;41.844;26.082;2023-03-01T00:45:46;101510.25;;;11.68;84.32
9335;BME280;4706;41.844;26.082;2023-03-01T00:48:12;101514.97;;;11.63;85.02
9335;BME280;4706;41.844;26.082;2023-03-01T00:50:37;101504.97;;;11.77;83.07
9335;BME280;4706;41.844;26.082;2023-03-01T00:53:03;101491.19;;;11.77;83.27
9335;BME280;4706;41.844;26.082;2023-03-01T00:55:30;101486.25;;;11.69;83.17
9335;BME280;4706;41.844;26.082;2023-03-01T00:57:56;101483.34;;;11.55;83.58
9335;BME280;4706;41.844;26.082;2023-03-01T01:00:21;101497.53;;;11.73;83.17
9335;BME280;4706;41.844;26.082;2023-03-01T01:02:47;101486.59;;;11.62;83.50
9335;BME280;4706;41.844;26.082;2023-03-01T01:05:12;101494.00;;;11.67;83.78
9335;BME280;4706;41.844;26.082;2023-03-01T01:07:38;101488.72;;;11.76;83.55
9335;BME280;4706;41.844;26.082;2023-03-01T01:10:05;101477.16;;;11.74;83.65
9335;BME280;4706;41.844;26.082;2023-03-01T01:12:31;101458.38;;;11.76;83.42
9335;BME280;4706;41.844;26.082;2023-03-01T01:14:57;101458.34;;;11.86;84.15
9335;BME280;4706;41.844;26.082;2023-03-01T01:17:22;101461.34;;;11.89;84.33
9335;BME280;4706;41.844;26.082;2023-03-01T01:19:48;101471.81;;;11.93;84.10
9335;BME280;4706;41.844;26.082;2023-03-01T01:22:14;101461.09;;;11.86;84.25
9335;BME280;4706;41.844;26.082;2023-03-01T01:24:39;101474.53;;;11.98;83.06
9335;BME280;4706;41.844;26.082;2023-03-01T01:27:04;101471.56;;;11.89;84.22
9335;BME280;4706;41.844;26.082;2023-03-01T01:29:31;101479.06;;;11.78;84.83
9335;BME280;4706;41.844;26.082;2023-03-01T01:31:56;101480.13;;;11.82;83.98
9335;BME280;4706;41.844;26.082;2023-03-01T01:34:22;101484.25;;;11.80;83.89
9335;BME280;4706;41.844;26.082;2023-03-01T01:36:51;101469.97;;;11.78;83.12
9335;BME280;4706;41.844;26.082;2023-03-01T01:39:21;101467.53;;;11.71;83.42
9335;BME280;4706;41.844;26.082;2023-03-01T01:41:47;101474.06;;;11.80;82.79
9335;BME280;4706;41.844;26.082;2023-03-01T01:44:25;101474.31;;;11.89;82.43
9335;BME280;4706;41.844;26.082;2023-03-01T01:47:01;101469.38;;;11.86;82.35
9335;BME280;4706;41.844;26.082;2023-03-01T01:49:40;101472.41;;;11.84;83.16
9335;BME280;4706;41.844;26.082;2023-03-01T01:55:06;101474.66;;;11.77;82.76
9335;BME280;4706;41.844;26.082;2023-03-01T01:57:42;101476.63;;;11.72;83.45
9335;BME280;4706;41.844;26.082;2023-03-01T02:00:28;101479.66;;;11.70;83.27
9335;BME280;4706;41.844;26.082;2023-03-01T02:02:57;101484.56;;;11.78;83.83
9335;BME280;4706;41.844;26.082;2023-03-01T02:08:25;101482.03;;;11.87;84.69
9335;BME280;4706;41.844;26.082;2023-03-01T02:10:52;101474.03;;;11.90;84.62
9335;BME280;4706;41.844;26.082;2023-03-01T02:13:20;101465.75;;;11.90;84.23
9335;BME280;4706;41.844;26.082;2023-03-01T02:15:45;101464.59;;;11.97;83.98
9335;BME280;4706;41.844;26.082;2023-03-01T02:18:13;101471.19;;;12.01;84.38
9335;BME280;4706;41.844;26.082;2023-03-01T02:23:29;101471.31;;;11.85;84.94
9335;BME280;4706;41.844;26.082;2023-03-01T02:28:58;101455.44;;;11.67;85.11
9335;BME280;4706;41.844;26.082;2023-03-01T02:31:24;101450.75;;;11.67;85.16
9335;BME280;4706;41.844;26.082;2023-03-01T02:34:12;101451.31;;;11.64;85.39
9335;BME280;4706;41.844;26.082;2023-03-01T02:36:40;101454.63;;;11.66;85.77
9335;BME280;4706;41.844;26.082;2023-03-01T02:39:12;101434.00;;;11.59;84.68
9335;BME280;4706;41.844;26.082;2023-03-01T02:41:44;101450.41;;;11.74;84.16
9335;BME280;4706;41.844;26.082;2023-03-01T02:44:10;101432.50;;;11.72;83.48
9335;BME280;4706;41.844;26.082;2023-03-01T02:46:52;101443.59;;;11.61;84.11
9335;BME280;4706;41.844;26.082;2023-03-01T02:49:22;101441.19;;;11.55;84.75
9335;BME280;4706;41.844;26.082;2023-03-01T02:54:58;101425.69;;;11.64;84.40
9335;BME280;4706;41.844;26.082;2023-03-01T02:57:27;101447.31;;;11.81;83.18
9335;BME280;4706;41.844;26.082;2023-03-01T02:59:54;101425.13;;;11.62;84.09
9335;BME280;4706;41.844;26.082;2023-03-01T03:02:25;101442.94;;;11.85;83.59
9335;BME280;4706;41.844;26.082;2023-03-01T03:05:10;101441.00;;;11.85;84.59
9335;BME280;4706;41.844;26.082;2023-03-01T03:07:38;101418.38;;;11.83;84.80
9335;BME280;4706;41.844;26.082;2023-03-01T03:10:07;101435.97;;;11.93;84.15
9335;BME280;4706;41.844;26.082;2023-03-01T03:12:33;101386.56;;;11.62;83.58
9335;BME280;4706;41.844;26.082;2023-03-01T03:14:58;101413.97;;;11.82;83.35
9335;BME280;4706;41.844;26.082;2023-03-01T03:17:23;101405.97;;;11.81;83.58
9335;BME280;4706;41.844;26.082;2023-03-01T03:19:49;101403.50;;;11.84;83.23
9335;BME280;4706;41.844;26.082;2023-03-01T03:22:15;101417.38;;;12.03;81.82
9335;BME280;4706;41.844;26.082;2023-03-01T03:24:40;101429.91;;;11.90;82.98
9335;BME280;4706;41.844;26.082;2023-03-01T03:27:06;101427.22;;;11.85;81.96
9335;BME280;4706;41.844;26.082;2023-03-01T03:29:32;101430.25;;;11.79;82.22
9335;BME280;4706;41.844;26.082;2023-03-01T03:31:58;101420.66;;;11.37;83.55
9335;BME280;4706;41.844;26.082;2023-03-01T03:34:24;101430.75;;;11.52;83.58
9335;BME280;4706;41.844;26.082;2023-03-01T03:36:56;101428.84;;;11.47;83.55
9335;BME280;4706;41.844;26.082;2023-03-01T03:39:25;101422.75;;;11.50;83.11
9335;BME280;4706;41.844;26.082;2023-03-01T03:41:52;101413.72;;;11.45;83.18
9335;BME280;4706;41.844;26.082;2023-03-01T03:44:37;101427.22;;;11.41;84.38
9335;BME280;4706;41.844;26.082;2023-03-01T03:50:06;101405.81;;;11.28;84.77
9335;BME280;4706;41.844;26.082;2023-03-01T03:52:31;101403.88;;;11.28;84.57
9335;BME280;4706;41.844;26.082;2023-03-01T03:54:57;101408.34;;;11.19;85.09
9335;BME280;4706;41.844;26.082;2023-03-01T03:57:22;101414.38;;;11.26;84.67
9335;BME280;4706;41.844;26.082;2023-03-01T03:59:48;101415.44;;;11.30;84.93
9335;BME280;4706;41.844;26.082;2023-03-01T04:02:13;101415.44;;;11.30;85.11
9335;BME280;4706;41.844;26.082;2023-03-01T04:04:49;101418.41;;;11.39;85.08
9335;BME280;4706;41.844;26.082;2023-03-01T04:07:16;101415.41;;;11.35;85.16
9335;BME280;4706;41.844;26.082;2023-03-01T04:09:42;101413.97;;;11.43;84.82
9335;BME280;4706;41.844;26.082;2023-03-01T04:12:08;101412.03;;;11.49;84.57
9335;BME280;4706;41.844;26.082;2023-03-01T04:14:34;101404.78;;;11.58;82.99
9335;BME280;4706;41.844;26.082;2023-03-01T04:16:59;101404.22;;;11.61;82.69
9335;BME280;4706;41.844;26.082;2023-03-01T04:19:26;101397.06;;;11.60;83.47
9335;BME280;4706;41.844;26.082;2023-03-01T04:21:53;101406.38;;;11.30;84.73
9335;BME280;4706;41.844;26.082;2023-03-01T04:24:18;101395.66;;;11.23;84.72
9335;BME280;4706;41.844;26.082;2023-03-01T04:26:44;101394.84;;;11.23;84.58
9335;BME280;4706;41.844;26.082;2023-03-01T04:29:09;101401.09;;;11.33;84.24
9335;BME280;4706;41.844;26.082;2023-03-01T04:31:35;101384.91;;;11.27;84.10
9335;BME280;4706;41.844;26.082;2023-03-01T04:34:01;101368.72;;;11.15;83.79
9335;BME280;4706;41.844;26.082;2023-03-01T04:36:28;101381.38;;;11.21;84.05
9335;BME280;4706;41.844;26.082;2023-03-01T04:38:55;101405.09;;;11.12;84.50
9335;BME280;4706;41.844;26.082;2023-03-01T04:41:22;101402.38;;;11.02;85.47
9335;BME280;4706;41.844;26.082;2023-03-01T04:43:49;101411.75;;;11.01;85.21
9335;BME280;4706;41.844;26.082;2023-03-01T04:46:17;101424.88;;;11.19;84.63
9335;BME280;4706;41.844;26.082;2023-03-01T04:48:44;101419.16;;;11.10;83.83
9335;BME280;4706;41.844;26.082;2023-03-01T04:51:11;101415.78;;;11.18;83.67
9335;BME280;4706;41.844;26.082;2023-03-01T04:53:40;101413.94;;;11.04;83.86
9335;BME280;4706;41.844;26.082;2023-03-01T04:56:06;101416.41;;;11.10;84.63
9335;BME280;4706;41.844;26.082;2023-03-01T04:58:32;101418.03;;;11.11;84.36
9335;BME280;4706;41.844;26.082;2023-03-01T05:00:57;101431.53;;;11.08;84.15
9335;BME280;4706;41.844;26.082;2023-03-01T05:03:23;101428.81;;;10.98;84.59
9335;BME280;4706;41.844;26.082;2023-03-01T05:05:51;101436.81;;;10.99;84.96
9335;BME280;4706;41.844;26.082;2023-03-01T05:08:17;101425.25;;;10.97;84.85
9335;BME280;4706;41.844;26.082;2023-03-01T05:10:52;101427.44;;;11.00;85.86
9335;BME280;4706;41.844;26.082;2023-03-01T05:13:20;101434.59;;;11.06;85.84
9335;BME280;4706;41.844;26.082;2023-03-01T05:16:06;101430.19;;;11.00;85.74
9335;BME280;4706;41.844;26.082;2023-03-01T05:18:36;101439.84;;;11.03;86.13
9335;BME280;4706;41.844;26.082;2023-03-01T05:21:08;101437.09;;;10.98;86.37
9335;BME280;4706;41.844;26.082;2023-03-01T05:23:34;101438.47;;;11.00;86.25
9335;BME280;4706;41.844;26.082;2023-03-01T05:26:01;101438.69;;;11.14;85.98
9335;BME280;4706;41.844;26.082;2023-03-01T05:28:27;101439.19;;;11.16;85.92
9335;BME280;4706;41.844;26.082;2023-03-01T05:30:54;101437.00;;;11.18;85.35
9335;BME280;4706;41.844;26.082;2023-03-01T05:33:20;101435.38;;;11.17;85.04
9335;BME280;4706;41.844;26.082;2023-03-01T05:35:48;101442.50;;;11.18;85.32
9335;BME280;4706;41.844;26.082;2023-03-01T05:38:15;101441.13;;;11.15;85.52
9335;BME280;4706;41.844;26.082;2023-03-01T05:40:42;101446.63;;;11.15;85.41
9335;BME280;4706;41.844;26.082;2023-03-01T05:43:10;101421.34;;;11.13;84.60
9335;BME280;4706;41.844;26.082;2023-03-01T05:45:37;101437.56;;;11.15;84.96
9335;BME280;4706;41.844;26.082;2023-03-01T05:48:04;101443.88;;;11.15;84.21
9335;BME280;4706;41.844;26.082;2023-03-01T05:50:33;101444.16;;;11.19;84.21
9335;BME280;4706;41.844;26.082;2023-03-01T05:53:04;101438.38;;;11.15;85.81
9335;BME280;4706;41.844;26.082;2023-03-01T05:55:34;101441.66;;;11.23;84.50
9335;BME280;4706;41.844;26.082;2023-03-01T05:58:02;101436.19;;;11.17;84.30
9335;BME280;4706;41.844;26.082;2023-03-01T06:00:29;101438.38;;;11.15;84.72
9335;BME280;4706;41.844;26.082;2023-03-01T06:02:56;101436.50;;;11.11;85.30
9335;BME280;4706;41.844;26.082;2023-03-01T06:05:22;101422.81;;;10.90;85.82
9335;BME280;4706;41.844;26.082;2023-03-01T06:07:48;101432.66;;;11.02;85.54
9335;BME280;4706;41.844;26.082;2023-03-01T06:10:17;101454.13;;;11.10;84.83
9335;BME280;4706;41.844;26.082;2023-03-01T06:12:43;101462.91;;;11.12;85.87
9335;BME280;4706;41.844;26.082;2023-03-01T06:15:11;101457.66;;;11.15;85.47
9335;BME280;4706;41.844;26.082;2023-03-01T06:17:39;101458.50;;;11.11;85.70
9335;BME280;4706;41.844;26.082;2023-03-01T06:20:09;101441.19;;;11.10;85.36
9335;BME280;4706;41.844;26.082;2023-03-01T06:22:35;101446.94;;;11.09;85.69
9335;BME280;4706;41.844;26.082;2023-03-01T06:25:00;101454.38;;;11.08;85.09
9335;BME280;4706;41.844;26.082;2023-03-01T06:27:26;101462.66;;;11.13;85.16
9335;BME280;4706;41.844;26.082;2023-03-01T06:29:51;101452.72;;;11.12;85.20
9335;BME280;4706;41.844;26.082;2023-03-01T06:32:17;101457.63;;;11.21;85.70
9335;BME280;4706;41.844;26.082;2023-03-01T06:34:43;101434.56;;;11.11;84.91
9335;BME280;4706;41.844;26.082;2023-03-01T06:37:08;101441.97;;;11.16;85.37
9335;BME280;4706;41.844;26.082;2023-03-01T06:39:34;101455.72;;;11.16;85.50
9335;BME280;4706;41.844;26.082;2023-03-01T06:41:59;101454.38;;;11.13;86.29
9335;BME280;4706;41.844;26.082;2023-03-01T06:44:26;101459.88;;;11.13;86.50
9335;BME280;4706;41.844;26.082;2023-03-01T06:46:51;101466.19;;;11.19;86.02
9335;BME280;4706;41.844;26.082;2023-03-01T06:49:17;101455.47;;;11.17;85.62
9335;BME280;4706;41.844;26.082;2023-03-01T06:51:43;101465.03;;;11.30;84.77
9335;BME280;4706;41.844;26.082;2023-03-01T06:54:09;101472.47;;;11.30;84.59
9335;BME280;4706;41.844;26.082;2023-03-01T06:56:35;101464.50;;;11.23;85.26
9335;BME280;4706;41.844;26.082;2023-03-01T06:59:00;101463.38;;;11.29;85.31
9335;BME280;4706;41.844;26.082;2023-03-01T07:01:26;101462.81;;;11.32;84.88
9335;BME280;4706;41.844;26.082;2023-03-01T07:03:51;101443.31;;;11.18;84.25
9335;BME280;4706;41.844;26.082;2023-03-01T07:06:17;101466.38;;;11.33;84.44
9335;BME280;4706;41.844;26.082;2023-03-01T07:08:43;101446.59;;;11.21;84.33
9335;BME280;4706;41.844;26.082;2023-03-01T07:11:08;101459.00;;;11.23;85.09
9335;BME280;4706;41.844;26.082;2023-03-01T07:13:34;101467.56;;;11.22;85.46
9335;BME280;4706;41.844;26.082;2023-03-01T07:16:00;101462.00;;;11.27;84.80
9335;BME280;4706;41.844;26.082;2023-03-01T07:18:25;101459.56;;;11.25;85.15
9335;BME280;4706;41.844;26.082;2023-03-01T07:20:51;101465.66;;;11.12;85.59
9335;BME280;4706;41.844;26.082;2023-03-01T07:23:17;101468.13;;;11.18;85.29
9335;BME280;4706;41.844;26.082;2023-03-01T07:25:42;101465.06;;;11.20;85.79
9335;BME280;4706;41.844;26.082;2023-03-01T07:28:08;101423.06;;;10.99;85.50
9335;BME280;4706;41.844;26.082;2023-03-01T07:30:33;101460.06;;;11.32;86.10
9335;BME280;4706;41.844;26.082;2023-03-01T07:32:59;101458.97;;;11.28;86.11
9335;BME280;4706;41.844;26.082;2023-03-01T07:35:25;101455.38;;;11.28;86.97
9335;BME280;4706;41.844;26.082;2023-03-01T07:37:52;101451.44;;;11.44;85.63
9335;BME280;4706;41.844;26.082;2023-03-01T07:40:17;101442.69;;;11.32;85.90
9335;BME280;4706;41.844;26.082;2023-03-01T07:42:43;101453.88;;;11.51;85.32
9335;BME280;4706;41.844;26.082;2023-03-01T07:45:09;101436.59;;;11.40;85.73
9335;BME280;4706;41.844;26.082;2023-03-01T07:47:35;101454.38;;;11.58;85.60
9335;BME280;4706;41.844;26.082;2023-03-01T07:50:01;101430.75;;;11.52;85.62
9335;BME280;4706;41.844;26.082;2023-03-01T07:52:28;101433.41;;;11.62;85.55
9335;BME280;4706;41.844;26.082;2023-03-01T07:54:53;101438.59;;;11.68;85.96
9335;BME280;4706;41.844;26.082;2023-03-01T07:57:19;101428.63;;;11.73;85.11
9335;BME280;4706;41.844;26.082;2023-03-01T07:59:44;101441.91;;;11.71;85.07
9335;BME280;4706;41.844;26.082;2023-03-01T08:02:10;101435.59;;;11.65;84.79
9335;BME280;4706;41.844;26.082;2023-03-01T08:04:36;101427.63;;;11.63;84.91
9335;BME280;4706;41.844;26.082;2023-03-01T08:07:04;101436.09;;;11.72;84.40
9335;BME280;4706;41.844;26.082;2023-03-01T08:09:30;101395.53;;;11.43;84.71
9335;BME280;4706;41.844;26.082;2023-03-01T08:11:57;101446.03;;;11.68;84.75
9335;BME280;4706;41.844;26.082;2023-03-01T08:14:25;101436.63;;;11.74;84.05
9335;BME280;4706;41.844;26.082;2023-03-01T08:16:50;101433.06;;;11.74;83.74
9335;BME280;4706;41.844;26.082;2023-03-01T08:19:16;101436.38;;;11.71;83.98
9335;BME280;4706;41.844;26.082;2023-03-01T08:21:41;101438.22;;;11.80;83.95
9335;BME280;4706;41.844;26.082;2023-03-01T08:24:07;101425.03;;;11.77;83.24
9335;BME280;4706;41.844;26.082;2023-03-01T08:26:33;101437.69;;;11.83;83.50
9335;BME280;4706;41.844;26.082;2023-03-01T08:29:00;101439.25;;;11.95;82.85
9335;BME280;4706;41.844;26.082;2023-03-01T08:33:56;101440.38;;;11.94;82.03
9335;BME280;4706;41.844;26.082;2023-03-01T08:36:30;101438.13;;;11.96;81.68
9335;BME280;4706;41.844;26.082;2023-03-01T08:38:56;101433.91;;;12.03;81.43
9335;BME280;4706;41.844;26.082;2023-03-01T08:41:21;101431.78;;;12.00;81.11
9335;BME280;4706;41.844;26.082;2023-03-01T08:43:47;101432.28;;;12.02;80.99
9335;BME280;4706;41.844;26.082;2023-03-01T08:46:13;101441.13;;;11.99;81.00
9335;BME280;4706;41.844;26.082;2023-03-01T08:48:39;101445.81;;;11.99;80.71
9335;BME280;4706;41.844;26.082;2023-03-01T08:51:15;101440.75;;;12.11;80.33
9335;BME280;4706;41.844;26.082;2023-03-01T08:53:42;101430.34;;;12.03;80.94
9335;BME280;4706;41.844;26.082;2023-03-01T08:56:08;101438.09;;;12.01;80.62
9335;BME280;4706;41.844;26.082;2023-03-01T08:58:33;101447.53;;;11.95;80.86
9335;BME280;4706;41.844;26.082;2023-03-01T09:00:59;101448.88;;;11.97;81.43
9335;BME280;4706;41.844;26.082;2023-03-01T09:03:26;101443.19;;;12.18;80.15
9335;BME280;4706;41.844;26.082;2023-03-01T09:05:52;101438.88;;;12.06;80.52
9335;BME280;4706;41.844;26.082;2023-03-01T09:08:18;101436.22;;;11.96;81.08
9335;BME280;4706;41.844;26.082;2023-03-01T09:10:44;101433.41;;;12.01;81.35
9335;BME280;4706;41.844;26.082;2023-03-01T09:13:10;101436.56;;;12.19;81.27
9335;BME280;4706;41.844;26.082;2023-03-01T09:15:39;101425.47;;;12.24;80.80
9335;BME280;4706;41.844;26.082;2023-03-01T09:18:05;101419.28;;;12.08;81.23
9335;BME280;4706;41.844;26.082;2023-03-01T09:20:31;101437.09;;;12.21;80.16
9335;BME280;4706;41.844;26.082;2023-03-01T09:22:57;101429.72;;;12.11;80.56
9335;BME280;4706;41.844;26.082;2023-03-01T09:25:23;101424.19;;;12.16;80.83
9335;BME280;4706;41.844;26.082;2023-03-01T09:27:52;101425.56;;;12.13;81.07
9335;BME280;4706;41.844;26.082;2023-03-01T09:30:18;101429.38;;;12.18;81.45
9335;BME280;4706;41.844;26.082;2023-03-01T09:32:44;101416.41;;;12.18;80.98
9335;BME280;4706;41.844;26.082;2023-03-01T09:35:11;101422.06;;;12.32;80.15
9335;BME280;4706;41.844;26.082;2023-03-01T09:37:37;101414.69;;;12.27;80.63
9335;BME280;4706;41.844;26.082;2023-03-01T09:40:05;101422.63;;;12.34;81.38
9335;BME280;4706;41.844;26.082;2023-03-01T09:42:35;101425.00;;;12.40;80.66
9335;BME280;4706;41.844;26.082;2023-03-01T09:45:05;101417.03;;;12.39;80.15
9335;BME280;4706;41.844;26.082;2023-03-01T09:47:34;101384.97;;;12.19;78.19
9335;BME280;4706;41.844;26.082;2023-03-01T09:55:48;101421.75;;;12.38;78.65
9335;BME280;4706;41.844;26.082;2023-03-01T09:58:41;101423.75;;;12.57;79.04
9335;BME280;4706;41.844;26.082;2023-03-01T10:07:02;101428.16;;;12.58;78.60
9335;BME280;4706;41.844;26.082;2023-03-01T10:09:36;101420.22;;;12.51;78.69
9335;BME280;4706;41.844;26.082;2023-03-01T10:12:06;101432.19;;;12.42;78.54
9335;BME280;4706;41.844;26.082;2023-03-01T10:14:38;101413.47;;;12.38;78.65
9335;BME280;4706;41.844;26.082;2023-03-01T10:17:10;101404.53;;;12.47;77.78
9335;BME280;4706;41.844;26.082;2023-03-01T10:19:45;101405.75;;;12.59;76.84
9335;BME280;4706;41.844;26.082;2023-03-01T10:22:16;101404.91;;;12.64;78.16
9335;BME280;4706;41.844;26.082;2023-03-01T10:24:42;101402.84;;;12.51;77.97
9335;BME280;4706;41.844;26.082;2023-03-01T10:30:35;101403.66;;;12.51;77.80
9335;BME280;4706;41.844;26.082;2023-03-01T10:33:13;101394.44;;;12.61;77.71
9335;BME280;4706;41.844;26.082;2023-03-01T10:35:42;101398.09;;;12.56;75.56
9335;BME280;4706;41.844;26.082;2023-03-01T10:38:12;101392.69;;;12.46;75.08
9335;BME280;4706;41.844;26.082;2023-03-01T10:40:52;101393.75;;;12.26;77.10
9335;BME280;4706;41.844;26.082;2023-03-01T10:43:18;101388.66;;;12.33;77.65
9335;BME280;4706;41.844;26.082;2023-03-01T10:45:44;101383.47;;;12.32;78.00
9335;BME280;4706;41.844;26.082;2023-03-01T10:48:20;101386.34;;;12.46;78.14
9335;BME280;4706;41.844;26.082;2023-03-01T10:50:51;101383.13;;;12.38;78.65
9335;BME280;4706;41.844;26.082;2023-03-01T10:53:34;101385.09;;;12.33;78.33
9335;BME280;4706;41.844;26.082;2023-03-01T10:56:07;101380.88;;;12.40;79.34
9335;BME280;4706;41.844;26.082;2023-03-01T10:58:38;101378.31;;;12.49;79.76
9335;BME280;4706;41.844;26.082;2023-03-01T11:01:06;101371.34;;;12.52;79.03
9335;BME280;4706;41.844;26.082;2023-03-01T11:06:33;101368.75;;;12.42;78.29
9335;BME280;4706;41.844;26.082;2023-03-01T11:09:20;101370.66;;;12.41;77.76
9335;BME280;4706;41.844;26.082;2023-03-01T11:11:51;101357.56;;;12.52;76.43
9335;BME280;4706;41.844;26.082;2023-03-01T11:14:24;101368.94;;;12.69;75.24
9335;BME280;4706;41.844;26.082;2023-03-01T11:17:03;101368.38;;;12.48;77.87
9335;BME280;4706;41.844;26.082;2023-03-01T11:19:29;101355.97;;;12.22;78.86
9335;BME280;4706;41.844;26.082;2023-03-01T11:21:56;101356.63;;;12.13;79.46
9335;BME280;4706;41.844;26.082;2023-03-01T11:24:30;101357.25;;;12.05;79.77
9335;BME280;4706;41.844;26.082;2023-03-01T11:26:59;101353.44;;;12.01;80.14
9335;BME280;4706;41.844;26.082;2023-03-01T11:29:39;101344.00;;;11.78;81.50
9335;BME280;4706;41.844;26.082;2023-03-01T11:32:08;101348.38;;;11.79;81.87
9335;BME280;4706;41.844;26.082;2023-03-01T11:34:56;101343.13;;;11.83;81.52
9335;BME280;4706;41.844;26.082;2023-03-01T11:37:32;101343.19;;;11.73;82.61
9335;BME280;4706;41.844;26.082;2023-03-01T11:43:09;101338.06;;;11.61;82.39
9335;BME280;4706;41.844;26.082;2023-03-01T11:48:37;101321.28;;;11.57;83.05
9335;BME280;4706;41.844;26.082;2023-03-01T11:51:22;101320.97;;;11.64;81.69
9335;BME280;4706;41.844;26.082;2023-03-01T11:56:43;101314.16;;;11.56;82.60
9335;BME280;4706;41.844;26.082;2023-03-01T11:59:41;101320.41;;;11.62;81.56
9335;BME280;4706;41.844;26.082;2023-03-01T12:35:03;101305.94;;;11.51;82.31
9335;BME280;4706;41.844;26.082;2023-03-01T12:40:53;101281.75;;;11.43;82.42
9335;BME280;4706;41.844;26.082;2023-03-01T12:43:47;101312.16;;;11.96;79.84
9335;BME280;4706;41.844;26.082;2023-03-01T12:49:16;101318.00;;;11.89;80.28
9335;BME280;4706;41.844;26.082;2023-03-01T12:51:56;101317.47;;;11.87;81.22
9335;BME280;4706;41.844;26.082;2023-03-01T12:54:28;101311.44;;;11.80;81.77
9335;BME280;4706;41.844;26.082;2023-03-01T12:57:18;101312.22;;;11.57;83.81
9335;BME280;4706;41.844;26.082;2023-03-01T12:59:54;101315.75;;;11.62;83.99
9335;BME280;4706;41.844;26.082;2023-03-01T13:05:13;101319.72;;;11.80;83.94
9335;BME280;4706;41.844;26.082;2023-03-01T13:07:53;101322.19;;;11.82;84.80
9335;BME280;4706;41.844;26.082;2023-03-01T13:17:51;101305.50;;;11.68;87.32
9335;BME280;4706;41.844;26.082;2023-03-01T13:20:32;101309.84;;;11.74;87.08
9335;BME280;4706;41.844;26.082;2023-03-01T13:23:23;101317.00;;;11.75;87.07
9335;BME280;4706;41.844;26.082;2023-03-01T13:26:16;101316.53;;;11.68;88.09
9335;BME280;4706;41.844;26.082;2023-03-01T13:31:56;101323.22;;;11.91;86.96
9335;BME280;4706;41.844;26.082;2023-03-01T13:34:01;101310.56;;;11.90;87.81
9335;BME280;4706;41.844;26.082;2023-03-01T13:39:04;101301.97;;;11.62;89.22
9335;BME280;4706;41.844;26.082;2023-03-01T13:55:00;101304.19;;;11.60;92.11
9335;BME280;4706;41.844;26.082;2023-03-01T13:57:36;101291.78;;;11.63;93.77
9335;BME280;4706;41.844;26.082;2023-03-01T14:00:05;101304.81;;;11.86;92.02
9335;BME280;4706;41.844;26.082;2023-03-01T14:02:31;101315.84;;;11.81;89.27
9335;BME280;4706;41.844;26.082;2023-03-01T14:04:58;101316.47;;;11.73;89.38
9335;BME280;4706;41.844;26.082;2023-03-01T14:07:25;101315.78;;;11.57;89.30
9335;BME280;4706;41.844;26.082;2023-03-01T14:10:00;101323.66;;;11.69;89.81
9335;BME280;4706;41.844;26.082;2023-03-01T14:12:38;101320.25;;;11.82;87.49
9335;BME280;4706;41.844;26.082;2023-03-01T14:15:20;101330.19;;;11.83;85.93
9335;BME280;4706;41.844;26.082;2023-03-01T14:22:50;101328.09;;;11.70;87.80
9335;BME280;4706;41.844;26.082;2023-03-01T14:27:55;101313.28;;;11.61;88.65
9335;BME280;4706;41.844;26.082;2023-03-01T14:30:27;101328.22;;;11.55;85.12
9335;BME280;4706;41.844;26.082;2023-03-01T14:33:05;101324.63;;;11.54;86.64
9335;BME280;4706;41.844;26.082;2023-03-01T14:35:34;101323.06;;;11.43;85.48
9335;BME280;4706;41.844;26.082;2023-03-01T14:38:00;101334.47;;;11.31;85.09
9335;BME280;4706;41.844;26.082;2023-03-01T14:40:35;101337.06;;;11.17;85.66
9335;BME280;4706;41.844;26.082;2023-03-01T14:43:09;101326.09;;;11.07;86.98
9335;BME280;4706;41.844;26.082;2023-03-01T14:45:36;101318.41;;;11.04;86.55
9335;BME280;4706;41.844;26.082;2023-03-01T14:48:04;101335.97;;;11.13;86.61
9335;BME280;4706;41.844;26.082;2023-03-01T14:50:33;101348.53;;;11.30;87.07
9335;BME280;4706;41.844;26.082;2023-03-01T14:53:01;101357.06;;;11.28;85.50
9335;BME280;4706;41.844;26.082;2023-03-01T14:55:49;101351.56;;;11.28;84.08
9335;BME280;4706;41.844;26.082;2023-03-01T14:58:20;101344.63;;;11.36;85.26
9335;BME280;4706;41.844;26.082;2023-03-01T15:01:03;101329.19;;;11.40;85.05
9335;BME280;4706;41.844;26.082;2023-03-01T15:03:35;101337.69;;;11.43;84.49
9335;BME280;4706;41.844;26.082;2023-03-01T15:06:06;101337.09;;;11.47;84.42
9335;BME280;4706;41.844;26.082;2023-03-01T15:08:33;101332.38;;;11.52;84.68
9335;BME280;4706;41.844;26.082;2023-03-01T15:11:05;101341.31;;;11.68;83.98
9335;BME280;4706;41.844;26.082;2023-03-01T15:13:32;101344.66;;;11.65;84.10